sensor_id;sensor_type;location;lat;lon;timestamp;pressure;altitude;pressure_sealevel;temperature;humidity
11525;BME280;5819;49.648;8.330;2022-08-01T00:01:20;100312.66;;;23.69;59.69
11525;BME280;5819;49.648;8.330;2022-08-01T00:03:50;100319.78;;;23.68;59.95
11525;BME280;5819;49.648;8.330;2022-08-01T00:06:18;100321.47;;;23.69;60.31
11525;BME280;5819;49.648;8.330;2022-08-01T00:08:46;100323.09;;;23.53;60.67
11525;BME280;5819;49.648;8.330;2022-08-01T00:11:14;100328.94;;;23.56;60.85
11525;BME280;5819;49.648;8.330;2022-08-01T00:13:43;100322.41;;;23.51;61.20
11525;BME280;5819;49.648;8.330;2022-08-01T00:16:11;100330.00;;;23.63;60.91
11525;BME280;5819;49.648;8.330;2022-08-01T00:18:39;100323.78;;;23.55;61.10
11525;BME280;5819;49.648;8.330;2022-08-01T00:21:10;100325.06;;;23.51;61.31
11525;BME280;5819;49.648;8.330;2022-08-01T00:23:38;100327.81;;;23.59;61.19
11525;BME280;5819;49.648;8.330;2022-08-01T00:26:07;100328.41;;;23.53;61.52
11525;BME280;5819;49.648;8.330;2022-08-01T00:28:35;100328.72;;;23.40;61.63
11525;BME280;5819;49.648;8.330;2022-08-01T00:31:12;100329.41;;;23.42;61.88
11525;BME280;5819;49.648;8.330;2022-08-01T00:33:41;100326.94;;;23.31;62.35
11525;BME280;5819;49.648;8.330;2022-08-01T00:36:14;100328.25;;;23.27;62.56
11525;BME280;5819;49.648;8.330;2022-08-01T00:38:45;100322.41;;;23.14;62.75
11525;BME280;5819;49.648;8.330;2022-08-01T00:41:13;100332.50;;;23.10;62.80
11525;BME280;5819;49.648;8.330;2022-08-01T00:43:43;100323.81;;;23.08;63.17
11525;BME280;5819;49.648;8.330;2022-08-01T00:46:11;100322.75;;;22.92;64.04
11525;BME280;5819;49.648;8.330;2022-08-01T00:48:40;100322.22;;;22.88;63.79
11525;BME280;5819;49.648;8.330;2022-08-01T00:51:10;100328.97;;;22.82;63.94
11525;BME280;5819;49.648;8.330;2022-08-01T00:53:42;100336.63;;;22.76;64.05
11525;BME280;5819;49.648;8.330;2022-08-01T00:56:23;100326.19;;;22.74;64.04
11525;BME280;5819;49.648;8.330;2022-08-01T00:58:53;100326.63;;;22.70;64.47
11525;BME280;5819;49.648;8.330;2022-08-01T01:01:26;100318.22;;;22.65;64.43
11525;BME280;5819;49.648;8.330;2022-08-01T01:04:05;100324.09;;;22.59;64.74
11525;BME280;5819;49.648;8.330;2022-08-01T01:06:42;100324.25;;;22.38;65.36
11525;BME280;5819;49.648;8.330;2022-08-01T01:09:23;100323.41;;;22.09;66.72
11525;BME280;5819;49.648;8.330;2022-08-01T01:12:01;100326.78;;;22.01;67.14
11525;BME280;5819;49.648;8.330;2022-08-01T01:14:38;100329.78;;;21.77;68.18
11525;BME280;5819;49.648;8.330;2022-08-01T01:17:15;100338.25;;;21.71;68.79
11525;BME280;5819;49.648;8.330;2022-08-01T01:20:06;100334.25;;;21.86;68.45
11525;BME280;5819;49.648;8.330;2022-08-01T01:22:49;100332.75;;;22.03;67.69
11525;BME280;5819;49.648;8.330;2022-08-01T01:25:37;100341.13;;;21.99;67.92
11525;BME280;5819;49.648;8.330;2022-08-01T01:28:14;100337.22;;;22.03;67.96
11525;BME280;5819;49.648;8.330;2022-08-01T01:30:53;100344.59;;;21.99;68.17
11525;BME280;5819;49.648;8.330;2022-08-01T01:33:29;100340.72;;;21.93;68.60
11525;BME280;5819;49.648;8.330;2022-08-01T01:36:05;100340.56;;;21.95;68.33
11525;BME280;5819;49.648;8.330;2022-08-01T01:38:40;100340.69;;;22.03;68.17
11525;BME280;5819;49.648;8.330;2022-08-01T01:41:16;100342.94;;;22.08;67.83
11525;BME280;5819;49.648;8.330;2022-08-01T01:43:48;100346.28;;;22.00;68.50
11525;BME280;5819;49.648;8.330;2022-08-01T01:46:25;100344.50;;;22.10;67.80
11525;BME280;5819;49.648;8.330;2022-08-01T01:49:01;100354.09;;;22.21;67.28
11525;BME280;5819;49.648;8.330;2022-08-01T01:51:31;100351.47;;;22.21;67.54
11525;BME280;5819;49.648;8.330;2022-08-01T01:54:04;100356.34;;;22.06;68.17
11525;BME280;5819;49.648;8.330;2022-08-01T01:56:35;100356.75;;;22.02;68.39
11525;BME280;5819;49.648;8.330;2022-08-01T01:59:20;100356.47;;;22.05;68.45
11525;BME280;5819;49.648;8.330;2022-08-01T02:01:57;100354.38;;;22.08;68.04
11525;BME280;5819;49.648;8.330;2022-08-01T02:04:36;100352.41;;;22.01;68.56
11525;BME280;5819;49.648;8.330;2022-08-01T02:07:09;100353.13;;;22.12;68.48
11525;BME280;5819;49.648;8.330;2022-08-01T02:09:44;100352.84;;;22.06;68.81
11525;BME280;5819;49.648;8.330;2022-08-01T02:12:16;100348.41;;;22.06;68.24
11525;BME280;5819;49.648;8.330;2022-08-01T02:14:49;100349.38;;;22.05;68.34
11525;BME280;5819;49.648;8.330;2022-08-01T02:17:26;100354.38;;;22.08;68.13
11525;BME280;5819;49.648;8.330;2022-08-01T02:19:55;100350.19;;;22.15;68.29
11525;BME280;5819;49.648;8.330;2022-08-01T02:22:27;100353.28;;;22.20;67.81
11525;BME280;5819;49.648;8.330;2022-08-01T02:25:02;100351.03;;;22.16;67.95
11525;BME280;5819;49.648;8.330;2022-08-01T02:27:40;100354.38;;;22.08;68.57
11525;BME280;5819;49.648;8.330;2022-08-01T02:30:13;100364.94;;;21.89;69.27
11525;BME280;5819;49.648;8.330;2022-08-01T02:32:46;100348.72;;;21.73;70.18
11525;BME280;5819;49.648;8.330;2022-08-01T02:35:20;100352.06;;;21.75;70.32
11525;BME280;5819;49.648;8.330;2022-08-01T02:37:52;100351.56;;;21.90;69.67
11525;BME280;5819;49.648;8.330;2022-08-01T02:40:21;100341.53;;;22.04;69.44
11525;BME280;5819;49.648;8.330;2022-08-01T02:42:55;100344.91;;;22.06;68.97
11525;BME280;5819;49.648;8.330;2022-08-01T02:45:28;100341.53;;;22.04;68.76
11525;BME280;5819;49.648;8.330;2022-08-01T02:48:09;100348.78;;;22.11;68.39
11525;BME280;5819;49.648;8.330;2022-08-01T02:50:44;100342.09;;;22.07;68.95
11525;BME280;5819;49.648;8.330;2022-08-01T02:53:16;100348.66;;;22.03;69.05
11525;BME280;5819;49.648;8.330;2022-08-01T02:55:47;100349.34;;;21.96;69.34
11525;BME280;5819;49.648;8.330;2022-08-01T02:58:20;100351.03;;;21.97;69.08
11525;BME280;5819;49.648;8.330;2022-08-01T03:00:57;100344.56;;;21.89;69.48
11525;BME280;5819;49.648;8.330;2022-08-01T03:03:33;100346.22;;;21.81;70.03
11525;BME280;5819;49.648;8.330;2022-08-01T03:06:04;100355.69;;;21.74;70.55
11525;BME280;5819;49.648;8.330;2022-08-01T03:08:40;100355.53;;;21.75;70.22
11525;BME280;5819;49.648;8.330;2022-08-01T03:11:11;100354.84;;;21.73;70.54
11525;BME280;5819;49.648;8.330;2022-08-01T03:13:41;100358.19;;;21.75;70.36
11525;BME280;5819;49.648;8.330;2022-08-01T03:16:13;100365.56;;;21.72;70.04
11525;BME280;5819;49.648;8.330;2022-08-01T03:18:45;100366.53;;;21.71;69.88
11525;BME280;5819;49.648;8.330;2022-08-01T03:21:15;100366.97;;;21.76;69.61
11525;BME280;5819;49.648;8.330;2022-08-01T03:23:45;100364.69;;;21.52;69.09
11525;BME280;5819;49.648;8.330;2022-08-01T03:26:19;100358.09;;;21.37;70.18
11525;BME280;5819;49.648;8.330;2022-08-01T03:28:48;100363.69;;;21.43;69.86
11525;BME280;5819;49.648;8.330;2022-08-01T03:31:17;100366.53;;;21.61;69.55
11525;BME280;5819;49.648;8.330;2022-08-01T03:33:46;100360.13;;;21.54;69.96
11525;BME280;5819;49.648;8.330;2022-08-01T03:36:15;100366.78;;;21.48;70.05
11525;BME280;5819;49.648;8.330;2022-08-01T03:38:45;100364.69;;;21.52;70.03
11525;BME280;5819;49.648;8.330;2022-08-01T03:41:19;100375.03;;;21.65;69.19
11525;BME280;5819;49.648;8.330;2022-08-01T03:44:05;100365.97;;;21.58;69.94
11525;BME280;5819;49.648;8.330;2022-08-01T03:46:40;100366.66;;;21.60;69.84
11525;BME280;5819;49.648;8.330;2022-08-01T03:49:16;100370.72;;;21.64;69.64
11525;BME280;5819;49.648;8.330;2022-08-01T03:51:47;100369.47;;;21.58;70.11
11525;BME280;5819;49.648;8.330;2022-08-01T03:54:20;100360.63;;;21.48;70.60
11525;BME280;5819;49.648;8.330;2022-08-01T03:56:49;100365.28;;;21.75;69.19
11525;BME280;5819;49.648;8.330;2022-08-01T03:59:19;100361.53;;;21.68;69.77
11525;BME280;5819;49.648;8.330;2022-08-01T04:01:48;100358.59;;;21.71;69.71
11525;BME280;5819;49.648;8.330;2022-08-01T04:04:18;100364.31;;;21.66;69.98
11525;BME280;5819;49.648;8.330;2022-08-01T04:06:46;100356.78;;;21.71;69.46
11525;BME280;5819;49.648;8.330;2022-08-01T04:09:17;100366.84;;;21.77;69.64
11525;BME280;5819;49.648;8.330;2022-08-01T04:11:46;100365.28;;;21.75;70.25
11525;BME280;5819;49.648;8.330;2022-08-01T04:14:14;100372.28;;;21.66;70.42
11525;BME280;5819;49.648;8.330;2022-08-01T04:16:42;100370.31;;;21.68;70.26
11525;BME280;5819;49.648;8.330;2022-08-01T04:19:11;100367.66;;;21.68;70.31
11525;BME280;5819;49.648;8.330;2022-08-01T04:21:41;100373.56;;;21.81;69.75
11525;BME280;5819;49.648;8.330;2022-08-01T04:24:12;100372.00;;;21.79;70.23
11525;BME280;5819;49.648;8.330;2022-08-01T04:26:43;100378.56;;;21.84;69.87
11525;BME280;5819;49.648;8.330;2022-08-01T04:29:14;100379.13;;;21.78;70.21
11525;BME280;5819;49.648;8.330;2022-08-01T04:31:46;100372.72;;;21.81;70.35
11525;BME280;5819;49.648;8.330;2022-08-01T04:34:19;100386.25;;;21.87;69.83
11525;BME280;5819;49.648;8.330;2022-08-01T04:36:51;100382.50;;;21.90;69.69
11525;BME280;5819;49.648;8.330;2022-08-01T04:39:23;100392.09;;;21.91;69.69
11525;BME280;5819;49.648;8.330;2022-08-01T04:41:57;100393.94;;;21.90;69.39
11525;BME280;5819;49.648;8.330;2022-08-01T04:44:26;100392.84;;;21.93;69.64
11525;BME280;5819;49.648;8.330;2022-08-01T04:46:59;100392.00;;;21.92;69.42
11525;BME280;5819;49.648;8.330;2022-08-01T04:49:34;100398.44;;;22.00;69.48
11525;BME280;5819;49.648;8.330;2022-08-01T04:52:17;100404.03;;;22.06;68.98
11525;BME280;5819;49.648;8.330;2022-08-01T04:54:51;100399.16;;;22.11;68.96
11525;BME280;5819;49.648;8.330;2022-08-01T04:57:20;100408.50;;;22.15;69.12
11525;BME280;5819;49.648;8.330;2022-08-01T04:59:49;100402.22;;;22.16;68.79
11525;BME280;5819;49.648;8.330;2022-08-01T05:02:25;100402.34;;;22.15;68.84
11525;BME280;5819;49.648;8.330;2022-08-01T05:04:55;100400.53;;;22.15;68.93
11525;BME280;5819;49.648;8.330;2022-08-01T05:07:44;100403.59;;;22.11;68.78
11525;BME280;5819;49.648;8.330;2022-08-01T05:10:15;100402.78;;;22.10;69.00
11525;BME280;5819;49.648;8.330;2022-08-01T05:12:48;100401.53;;;22.24;69.17
11525;BME280;5819;49.648;8.330;2022-08-01T05:15:23;100399.03;;;22.22;69.29
11525;BME280;5819;49.648;8.330;2022-08-01T05:17:54;100402.50;;;22.13;69.22
11525;BME280;5819;49.648;8.330;2022-08-01T05:20:24;100401.50;;;22.05;69.59
11525;BME280;5819;49.648;8.330;2022-08-01T05:22:59;100403.59;;;22.01;70.25
11525;BME280;5819;49.648;8.330;2022-08-01T05:26:02;100403.75;;;22.09;69.40
11525;BME280;5819;49.648;8.330;2022-08-01T05:28:35;100401.78;;;22.11;69.89
11525;BME280;5819;49.648;8.330;2022-08-01T05:31:03;100408.50;;;22.06;70.13
11525;BME280;5819;49.648;8.330;2022-08-01T05:33:31;100413.50;;;22.09;70.17
11525;BME280;5819;49.648;8.330;2022-08-01T05:35:59;100407.66;;;22.15;69.82
11525;BME280;5819;49.648;8.330;2022-08-01T05:38:29;100419.13;;;22.54;68.80
11525;BME280;5819;49.648;8.330;2022-08-01T05:40:57;100419.00;;;22.84;67.62
11525;BME280;5819;49.648;8.330;2022-08-01T05:43:26;100417.47;;;22.81;67.04
11525;BME280;5819;49.648;8.330;2022-08-01T05:45:55;100415.78;;;22.80;67.58
11525;BME280;5819;49.648;8.330;2022-08-01T05:48:24;100421.94;;;22.81;67.47
11525;BME280;5819;49.648;8.330;2022-08-01T05:50:53;100418.28;;;22.92;67.30
11525;BME280;5819;49.648;8.330;2022-08-01T05:53:24;100414.53;;;22.84;67.53
11525;BME280;5819;49.648;8.330;2022-08-01T05:55:55;100418.16;;;22.83;67.45
11525;BME280;5819;49.648;8.330;2022-08-01T05:58:23;100412.72;;;22.75;67.46
11525;BME280;5819;49.648;8.330;2022-08-01T06:00:51;100417.19;;;22.65;67.22
11525;BME280;5819;49.648;8.330;2022-08-01T06:03:20;100413.84;;;22.54;68.13
11525;BME280;5819;49.648;8.330;2022-08-01T06:05:49;100414.50;;;22.56;67.94
11525;BME280;5819;49.648;8.330;2022-08-01T06:08:19;100419.69;;;22.57;68.70
11525;BME280;5819;49.648;8.330;2022-08-01T06:10:47;100414.13;;;22.51;68.33
11525;BME280;5819;49.648;8.330;2022-08-01T06:13:18;100411.31;;;22.62;67.88
11525;BME280;5819;49.648;8.330;2022-08-01T06:15:47;100419.28;;;22.81;67.47
11525;BME280;5819;49.648;8.330;2022-08-01T06:18:16;100417.31;;;22.64;67.84
11525;BME280;5819;49.648;8.330;2022-08-01T06:20:44;100423.63;;;22.72;67.24
11525;BME280;5819;49.648;8.330;2022-08-01T06:23:12;100422.59;;;22.64;67.73
11525;BME280;5819;49.648;8.330;2022-08-01T06:25:59;100429.31;;;22.87;66.85
11525;BME280;5819;49.648;8.330;2022-08-01T06:28:28;100430.03;;;22.99;66.62
11525;BME280;5819;49.648;8.330;2022-08-01T06:30:57;100431.91;;;23.25;65.68
11525;BME280;5819;49.648;8.330;2022-08-01T06:33:26;100427.22;;;23.56;64.83
11525;BME280;5819;49.648;8.330;2022-08-01T06:35:54;100425.84;;;23.79;64.01
11525;BME280;5819;49.648;8.330;2022-08-01T06:38:22;100426.63;;;23.90;64.47
11525;BME280;5819;49.648;8.330;2022-08-01T06:40:53;100432.09;;;24.15;63.81
11525;BME280;5819;49.648;8.330;2022-08-01T06:43:21;100431.69;;;24.10;63.00
11525;BME280;5819;49.648;8.330;2022-08-01T06:45:52;100435.69;;;24.42;62.59
11525;BME280;5819;49.648;8.330;2022-08-01T06:48:21;100431.44;;;24.66;62.05
11525;BME280;5819;49.648;8.330;2022-08-01T06:50:50;100432.41;;;25.01;61.67
11525;BME280;5819;49.648;8.330;2022-08-01T06:53:35;100441.09;;;25.54;59.98
11525;BME280;5819;49.648;8.330;2022-08-01T06:56:04;100432.75;;;25.32;59.68
11525;BME280;5819;49.648;8.330;2022-08-01T06:58:33;100440.34;;;25.19;60.51
11525;BME280;5819;49.648;8.330;2022-08-01T07:01:04;100447.97;;;25.13;60.63
11525;BME280;5819;49.648;8.330;2022-08-01T07:03:34;100441.94;;;25.03;61.04
11525;BME280;5819;49.648;8.330;2022-08-01T07:06:22;100442.63;;;24.70;61.42
11525;BME280;5819;49.648;8.330;2022-08-01T07:08:52;100450.91;;;24.85;61.67
11525;BME280;5819;49.648;8.330;2022-08-01T07:11:20;100439.19;;;24.78;60.59
11525;BME280;5819;49.648;8.330;2022-08-01T07:13:49;100439.25;;;24.68;62.16
11525;BME280;5819;49.648;8.330;2022-08-01T07:16:19;100433.22;;;24.84;61.41
11525;BME280;5819;49.648;8.330;2022-08-01T07:18:47;100433.66;;;24.71;62.13
11525;BME280;5819;49.648;8.330;2022-08-01T07:21:15;100431.91;;;24.62;62.02
11525;BME280;5819;49.648;8.330;2022-08-01T07:24:03;100429.31;;;24.88;61.50
11525;BME280;5819;49.648;8.330;2022-08-01T07:26:39;100421.94;;;24.99;61.28
11525;BME280;5819;49.648;8.330;2022-08-01T07:29:20;100415.25;;;24.60;62.39
11525;BME280;5819;49.648;8.330;2022-08-01T07:31:50;100418.91;;;24.41;63.09
11525;BME280;5819;49.648;8.330;2022-08-01T07:34:19;100425.81;;;24.34;63.21
11525;BME280;5819;49.648;8.330;2022-08-01T07:36:48;100416.88;;;24.35;63.09
11525;BME280;5819;49.648;8.330;2022-08-01T07:39:16;100422.53;;;24.93;62.37
11525;BME280;5819;49.648;8.330;2022-08-01T07:41:45;100421.91;;;25.51;59.82
11525;BME280;5819;49.648;8.330;2022-08-01T07:44:32;100423.63;;;25.08;60.92
11525;BME280;5819;49.648;8.330;2022-08-01T07:47:01;100424.94;;;25.30;60.24
11525;BME280;5819;49.648;8.330;2022-08-01T07:49:29;100424.59;;;24.64;61.59
11525;BME280;5819;49.648;8.330;2022-08-01T07:52:05;100414.66;;;24.66;61.99
11525;BME280;5819;49.648;8.330;2022-08-01T07:54:34;100409.91;;;24.78;62.27
11525;BME280;5819;49.648;8.330;2022-08-01T07:57:03;100419.56;;;24.96;61.66
11525;BME280;5819;49.648;8.330;2022-08-01T07:59:31;100417.97;;;25.03;61.26
11525;BME280;5819;49.648;8.330;2022-08-01T08:01:59;100421.94;;;24.99;61.21
11525;BME280;5819;49.648;8.330;2022-08-01T08:04:29;100425.19;;;25.45;60.26
11525;BME280;5819;49.648;8.330;2022-08-01T08:06:57;100419.13;;;26.02;58.96
11525;BME280;5819;49.648;8.330;2022-08-01T08:09:25;100422.00;;;25.67;59.27
11525;BME280;5819;49.648;8.330;2022-08-01T08:11:54;100426.50;;;25.41;60.47
11525;BME280;5819;49.648;8.330;2022-08-01T08:14:22;100424.84;;;25.14;61.00
11525;BME280;5819;49.648;8.330;2022-08-01T08:16:58;100421.72;;;24.75;62.82
11525;BME280;5819;49.648;8.330;2022-08-01T08:19:30;100428.69;;;24.76;62.61
11525;BME280;5819;49.648;8.330;2022-08-01T08:22:06;100427.28;;;24.46;63.24
11525;BME280;5819;49.648;8.330;2022-08-01T08:24:36;100426.97;;;24.67;62.96
11525;BME280;5819;49.648;8.330;2022-08-01T08:27:12;100432.88;;;24.96;62.25
11525;BME280;5819;49.648;8.330;2022-08-01T08:29:40;100432.31;;;25.62;60.16
11525;BME280;5819;49.648;8.330;2022-08-01T08:32:08;100425.31;;;26.11;58.94
11525;BME280;5819;49.648;8.330;2022-08-01T08:34:38;100408.69;;;26.25;58.57
11525;BME280;5819;49.648;8.330;2022-08-01T08:37:07;100418.91;;;26.38;57.48
11525;BME280;5819;49.648;8.330;2022-08-01T08:39:36;100424.91;;;26.64;56.77
11525;BME280;5819;49.648;8.330;2022-08-01T08:42:08;100420.94;;;26.52;57.19
11525;BME280;5819;49.648;8.330;2022-08-01T08:44:37;100414.75;;;26.43;57.40
11525;BME280;5819;49.648;8.330;2022-08-01T08:47:11;100420.34;;;26.24;57.02
11525;BME280;5819;49.648;8.330;2022-08-01T08:49:49;100430.00;;;26.17;57.47
11525;BME280;5819;49.648;8.330;2022-08-01T08:52:19;100415.88;;;26.25;57.30
11525;BME280;5819;49.648;8.330;2022-08-01T08:54:49;100416.22;;;26.38;57.28
11525;BME280;5819;49.648;8.330;2022-08-01T08:57:19;100412.56;;;26.55;56.59
11525;BME280;5819;49.648;8.330;2022-08-01T08:59:51;100414.53;;;26.37;57.27
11525;BME280;5819;49.648;8.330;2022-08-01T09:02:22;100419.50;;;26.16;58.04
11525;BME280;5819;49.648;8.330;2022-08-01T09:04:52;100412.41;;;26.65;56.39
11525;BME280;5819;49.648;8.330;2022-08-01T09:07:20;100411.56;;;26.56;56.66
11525;BME280;5819;49.648;8.330;2022-08-01T09:09:49;100413.31;;;25.65;58.41
11525;BME280;5819;49.648;8.330;2022-08-01T09:12:18;100414.13;;;25.32;59.64
11525;BME280;5819;49.648;8.330;2022-08-01T09:14:47;100409.94;;;25.29;60.34
11525;BME280;5819;49.648;8.330;2022-08-01T09:17:17;100407.44;;;25.53;58.91
11525;BME280;5819;49.648;8.330;2022-08-01T09:19:46;100412.09;;;26.51;56.18
11525;BME280;5819;49.648;8.330;2022-08-01T09:22:18;100427.75;;;26.79;54.89
11525;BME280;5819;49.648;8.330;2022-08-01T09:24:58;100418.94;;;26.94;55.18
11525;BME280;5819;49.648;8.330;2022-08-01T09:27:28;100424.38;;;27.25;54.89
11525;BME280;5819;49.648;8.330;2022-08-01T09:30:09;100428.75;;;26.78;55.63
11525;BME280;5819;49.648;8.330;2022-08-01T09:32:53;100425.72;;;26.48;56.88
11525;BME280;5819;49.648;8.330;2022-08-01T09:35:25;100430.25;;;26.32;56.85
11525;BME280;5819;49.648;8.330;2022-08-01T09:38:18;100430.41;;;26.46;55.75
11525;BME280;5819;49.648;8.330;2022-08-01T09:40:49;100435.91;;;26.45;55.24
11525;BME280;5819;49.648;8.330;2022-08-01T09:43:17;100430.09;;;26.66;55.52
11525;BME280;5819;49.648;8.330;2022-08-01T09:45:47;100431.25;;;26.55;56.19
11525;BME280;5819;49.648;8.330;2022-08-01T09:48:19;100431.91;;;26.49;56.11
11525;BME280;5819;49.648;8.330;2022-08-01T09:50:54;100432.59;;;26.67;54.83
11525;BME280;5819;49.648;8.330;2022-08-01T09:53:44;100427.94;;;27.02;54.90
11525;BME280;5819;49.648;8.330;2022-08-01T09:56:18;100433.25;;;27.18;53.61
11525;BME280;5819;49.648;8.330;2022-08-01T09:58:54;100434.44;;;26.83;54.40
11525;BME280;5819;49.648;8.330;2022-08-01T10:01:27;100427.91;;;26.53;55.37
11525;BME280;5819;49.648;8.330;2022-08-01T10:04:08;100425.91;;;26.47;55.81
11525;BME280;5819;49.648;8.330;2022-08-01T10:06:38;100426.91;;;26.54;55.56
11525;BME280;5819;49.648;8.330;2022-08-01T10:09:09;100420.91;;;26.60;55.28
11525;BME280;5819;49.648;8.330;2022-08-01T10:11:41;100428.09;;;26.51;56.11
11525;BME280;5819;49.648;8.330;2022-08-01T10:14:10;100422.56;;;26.53;56.42
11525;BME280;5819;49.648;8.330;2022-08-01T10:16:45;100427.56;;;27.13;55.35
11525;BME280;5819;49.648;8.330;2022-08-01T10:19:23;100422.50;;;29.11;51.32
11525;BME280;5819;49.648;8.330;2022-08-01T10:21:56;100413.97;;;30.95;46.81
11525;BME280;5819;49.648;8.330;2022-08-01T10:24:29;100416.50;;;30.33;47.65
11525;BME280;5819;49.648;8.330;2022-08-01T10:27:03;100415.16;;;29.42;49.29
11525;BME280;5819;49.648;8.330;2022-08-01T10:29:40;100417.97;;;28.51;50.46
11525;BME280;5819;49.648;8.330;2022-08-01T10:32:13;100414.53;;;27.81;51.77
11525;BME280;5819;49.648;8.330;2022-08-01T10:34:42;100418.84;;;27.51;52.31
11525;BME280;5819;49.648;8.330;2022-08-01T10:37:12;100411.53;;;29.50;49.23
11525;BME280;5819;49.648;8.330;2022-08-01T10:39:43;100400.03;;;31.40;45.39
11525;BME280;5819;49.648;8.330;2022-08-01T10:42:12;100406.97;;;30.09;47.43
11525;BME280;5819;49.648;8.330;2022-08-01T10:44:42;100413.22;;;29.51;48.85
11525;BME280;5819;49.648;8.330;2022-08-01T10:47:18;100412.78;;;28.50;50.51
11525;BME280;5819;49.648;8.330;2022-08-01T10:50:03;100405.34;;;28.14;51.04
11525;BME280;5819;49.648;8.330;2022-08-01T10:52:32;100402.38;;;27.70;51.59
11525;BME280;5819;49.648;8.330;2022-08-01T10:55:07;100394.66;;;27.83;51.45
11525;BME280;5819;49.648;8.330;2022-08-01T10:57:43;100402.16;;;28.19;51.20
11525;BME280;5819;49.648;8.330;2022-08-01T11:00:20;100389.88;;;29.22;49.24
11525;BME280;5819;49.648;8.330;2022-08-01T11:02:58;100392.41;;;30.39;45.92
11525;BME280;5819;49.648;8.330;2022-08-01T11:05:31;100386.78;;;31.80;43.58
11525;BME280;5819;49.648;8.330;2022-08-01T11:08:03;100382.56;;;30.95;44.53
11525;BME280;5819;49.648;8.330;2022-08-01T11:10:37;100384.00;;;31.26;43.87
11525;BME280;5819;49.648;8.330;2022-08-01T11:13:06;100383.44;;;31.71;42.79
11525;BME280;5819;49.648;8.330;2022-08-01T11:15:35;100378.47;;;33.14;40.79
11525;BME280;5819;49.648;8.330;2022-08-01T11:18:30;100375.47;;;34.38;38.82
11525;BME280;5819;49.648;8.330;2022-08-01T11:21:03;100372.06;;;34.11;38.26
11525;BME280;5819;49.648;8.330;2022-08-01T11:23:51;100371.00;;;33.16;40.28
11525;BME280;5819;49.648;8.330;2022-08-01T11:26:24;100371.84;;;32.97;40.20
11525;BME280;5819;49.648;8.330;2022-08-01T11:29:17;100380.09;;;32.23;41.35
11525;BME280;5819;49.648;8.330;2022-08-01T11:31:48;100376.69;;;31.47;42.64
11525;BME280;5819;49.648;8.330;2022-08-01T11:34:16;100372.97;;;31.96;41.40
11525;BME280;5819;49.648;8.330;2022-08-01T11:36:45;100358.56;;;32.95;39.96
11525;BME280;5819;49.648;8.330;2022-08-01T11:39:30;100357.13;;;34.46;38.12
11525;BME280;5819;49.648;8.330;2022-08-01T11:42:20;100354.84;;;34.43;37.40
11525;BME280;5819;49.648;8.330;2022-08-01T11:44:53;100353.94;;;33.42;39.14
11525;BME280;5819;49.648;8.330;2022-08-01T11:47:45;100348.50;;;33.49;39.06
11525;BME280;5819;49.648;8.330;2022-08-01T11:50:35;100348.66;;;32.89;39.86
11525;BME280;5819;49.648;8.330;2022-08-01T11:53:07;100342.69;;;33.96;39.09
11525;BME280;5819;49.648;8.330;2022-08-01T11:55:45;100344.38;;;33.39;39.35
11525;BME280;5819;49.648;8.330;2022-08-01T11:58:22;100340.91;;;33.19;39.69
11525;BME280;5819;49.648;8.330;2022-08-01T12:00:57;100327.81;;;34.43;37.58
11525;BME280;5819;49.648;8.330;2022-08-01T12:03:28;100331.69;;;33.53;38.62
11525;BME280;5819;49.648;8.330;2022-08-01T12:05:59;100333.06;;;33.69;39.02
11525;BME280;5819;49.648;8.330;2022-08-01T12:08:29;100340.88;;;33.32;39.51
11525;BME280;5819;49.648;8.330;2022-08-01T12:11:00;100336.41;;;32.80;40.27
11525;BME280;5819;49.648;8.330;2022-08-01T12:13:40;100339.56;;;31.71;41.57
11525;BME280;5819;49.648;8.330;2022-08-01T12:16:10;100342.09;;;31.38;42.36
11525;BME280;5819;49.648;8.330;2022-08-01T12:18:40;100338.44;;;30.83;43.24
11525;BME280;5819;49.648;8.330;2022-08-01T12:21:08;100336.97;;;30.32;45.38
11525;BME280;5819;49.648;8.330;2022-08-01T12:23:36;100322.66;;;34.42;38.65
11525;BME280;5819;49.648;8.330;2022-08-01T12:26:04;100320.56;;;34.68;37.40
11525;BME280;5819;49.648;8.330;2022-08-01T12:28:40;100317.34;;;34.28;37.91
11525;BME280;5819;49.648;8.330;2022-08-01T12:31:08;100324.63;;;32.68;40.44
11525;BME280;5819;49.648;8.330;2022-08-01T12:33:38;100327.31;;;32.68;40.92
11525;BME280;5819;49.648;8.330;2022-08-01T12:36:06;100319.38;;;34.58;37.24
11525;BME280;5819;49.648;8.330;2022-08-01T12:38:40;100319.78;;;35.41;36.13
11525;BME280;5819;49.648;8.330;2022-08-01T12:41:10;100317.94;;;35.53;35.86
11525;BME280;5819;49.648;8.330;2022-08-01T12:43:40;100327.34;;;35.68;35.54
11525;BME280;5819;49.648;8.330;2022-08-01T12:46:08;100326.38;;;35.93;35.44
11525;BME280;5819;49.648;8.330;2022-08-01T12:48:43;100325.75;;;34.88;36.31
11525;BME280;5819;49.648;8.330;2022-08-01T12:51:11;100326.16;;;33.28;37.90
11525;BME280;5819;49.648;8.330;2022-08-01T12:53:39;100333.81;;;31.87;40.92
11525;BME280;5819;49.648;8.330;2022-08-01T12:56:08;100321.44;;;32.06;41.42
11525;BME280;5819;49.648;8.330;2022-08-01T12:58:39;100313.75;;;33.72;38.63
11525;BME280;5819;49.648;8.330;2022-08-01T13:01:09;100309.38;;;33.20;39.22
11525;BME280;5819;49.648;8.330;2022-08-01T13:03:40;100321.50;;;32.65;40.12
11525;BME280;5819;49.648;8.330;2022-08-01T13:06:12;100315.00;;;32.00;40.54
11525;BME280;5819;49.648;8.330;2022-08-01T13:08:43;100314.84;;;32.47;41.03
11525;BME280;5819;49.648;8.330;2022-08-01T13:11:12;100319.50;;;33.37;38.70
11525;BME280;5819;49.648;8.330;2022-08-01T13:13:45;100317.34;;;32.56;38.99
11525;BME280;5819;49.648;8.330;2022-08-01T13:16:16;100309.66;;;32.59;39.29
11525;BME280;5819;49.648;8.330;2022-08-01T13:19:04;100311.75;;;32.31;40.82
11525;BME280;5819;49.648;8.330;2022-08-01T13:21:33;100311.88;;;31.83;41.60
11525;BME280;5819;49.648;8.330;2022-08-01T13:24:23;100312.66;;;31.71;41.63
11525;BME280;5819;49.648;8.330;2022-08-01T13:26:54;100313.31;;;31.32;41.69
11525;BME280;5819;49.648;8.330;2022-08-01T13:29:30;100315.13;;;30.90;42.43